sensor_id;sensor_type;location;lat;lon;timestamp;pressure;altitude;pressure_sealevel;temperature;humidity
66090;BME280;53113;45.602;11.904;2022-08-04T00:00:16;101331.02;;;25.39;49.28
66090;BME280;53113;45.602;11.904;2022-08-04T00:05:21;101326.23;;;25.36;49.41
66090;BME280;53113;45.602;11.904;2022-08-04T00:10:21;101327.28;;;25.36;49.33
66090;BME280;53113;45.602;11.904;2022-08-04T00:12:50;101323.33;;;25.34;49.31
66090;BME280;53113;45.602;11.904;2022-08-04T00:15:17;101324.38;;;25.35;49.37
66090;BME280;53113;45.602;11.904;2022-08-04T00:18:06;101329.65;;;25.35;49.34
66090;BME280;53113;45.602;11.904;2022-08-04T00:20:36;101328.13;;;25.34;49.60
66090;BME280;53113;45.602;11.904;2022-08-04T00:23:04;101327.14;;;25.33;49.78
66090;BME280;53113;45.602;11.904;2022-08-04T00:25:30;101329.75;;;25.32;49.76
66090;BME280;53113;45.602;11.904;2022-08-04T00:27:59;101325.74;;;25.33;49.84
66090;BME280;53113;45.602;11.904;2022-08-04T00:30:27;101327.79;;;25.32;49.67
66090;BME280;53113;45.602;11.904;2022-08-04T00:32:54;101324.55;;;25.32;50.05
66090;BME280;53113;45.602;11.904;2022-08-04T00:35:22;101325.58;;;25.31;50.22
66090;BME280;53113;45.602;11.904;2022-08-04T00:37:48;101330.02;;;25.32;50.27
66090;BME280;53113;45.602;11.904;2022-08-04T00:43:49;101331.64;;;25.32;50.52
66090;BME280;53113;45.602;11.904;2022-08-04T00:57:31;101330.16;;;25.25;51.08
66090;BME280;53113;45.602;11.904;2022-08-04T01:00:11;101329.80;;;25.21;51.14
66090;BME280;53113;45.602;11.904;2022-08-04T01:13:58;101333.04;;;24.99;51.02
66090;BME280;53113;45.602;11.904;2022-08-04T01:16:26;101327.85;;;24.93;50.90
66090;BME280;53113;45.602;11.904;2022-08-04T01:18:59;101327.80;;;24.88;51.14
66090;BME280;53113;45.602;11.904;2022-08-04T01:24:13;101327.75;;;24.77;51.82
66090;BME280;53113;45.602;11.904;2022-08-04T01:27:02;101323.40;;;24.72;51.94
66090;BME280;53113;45.602;11.904;2022-08-04T01:29:34;101326.45;;;24.66;52.15
66090;BME280;53113;45.602;11.904;2022-08-04T01:34:50;101325.17;;;24.56;52.13
66090;BME280;53113;45.602;11.904;2022-08-04T01:40:01;101329.11;;;24.46;52.38
66090;BME280;53113;45.602;11.904;2022-08-04T01:42:31;101337.39;;;24.41;52.99
66090;BME280;53113;45.602;11.904;2022-08-04T01:45:09;101341.73;;;24.35;53.47
66090;BME280;53113;45.602;11.904;2022-08-04T01:47:41;101343.67;;;24.30;53.45
66090;BME280;53113;45.602;11.904;2022-08-04T01:50:12;101347.34;;;24.23;53.38
66090;BME280;53113;45.602;11.904;2022-08-04T01:52:40;101350.30;;;24.17;53.50
66090;BME280;53113;45.602;11.904;2022-08-04T01:55:09;101348.48;;;24.11;53.58
66090;BME280;53113;45.602;11.904;2022-08-04T01:57:44;101345.06;;;24.07;53.65
66090;BME280;53113;45.602;11.904;2022-08-04T02:00:13;101341.83;;;24.02;53.68
66090;BME280;53113;45.602;11.904;2022-08-04T02:02:40;101342.27;;;23.97;53.86
66090;BME280;53113;45.602;11.904;2022-08-04T02:05:09;101336.37;;;23.92;53.92
66090;BME280;53113;45.602;11.904;2022-08-04T02:07:50;101332.86;;;23.88;54.07
66090;BME280;53113;45.602;11.904;2022-08-04T02:18:22;101338.59;;;23.89;54.51
66090;BME280;53113;45.602;11.904;2022-08-04T02:20:57;101336.81;;;23.87;54.61
66090;BME280;53113;45.602;11.904;2022-08-04T02:23:29;101337.08;;;23.85;54.77
66090;BME280;53113;45.602;11.904;2022-08-04T02:26:04;101341.67;;;23.83;54.80
66090;BME280;53113;45.602;11.904;2022-08-04T02:33:41;101338.35;;;23.75;55.29
66090;BME280;53113;45.602;11.904;2022-08-04T02:36:23;101338.35;;;23.71;55.46
66090;BME280;53113;45.602;11.904;2022-08-04T02:38:58;101337.54;;;23.68;55.58
66090;BME280;53113;45.602;11.904;2022-08-04T02:41:27;101337.63;;;23.63;55.51
66090;BME280;53113;45.602;11.904;2022-08-04T02:43:58;101333.65;;;23.60;55.60
66090;BME280;53113;45.602;11.904;2022-08-04T02:46:26;101337.20;;;23.56;55.62
66090;BME280;53113;45.602;11.904;2022-08-04T02:48:53;101335.84;;;23.52;55.53
66090;BME280;53113;45.602;11.904;2022-08-04T02:51:26;101330.88;;;23.48;55.58
66090;BME280;53113;45.602;11.904;2022-08-04T02:53:55;101328.65;;;23.44;55.61
66090;BME280;53113;45.602;11.904;2022-08-04T02:56:23;101334.65;;;23.41;55.65
66090;BME280;53113;45.602;11.904;2022-08-04T02:58:59;101330.38;;;23.38;55.60
66090;BME280;53113;45.602;11.904;2022-08-04T03:01:26;101329.70;;;23.34;55.53
66090;BME280;53113;45.602;11.904;2022-08-04T03:06:56;101330.26;;;23.29;56.00
66090;BME280;53113;45.602;11.904;2022-08-04T03:26:06;101322.86;;;23.25;56.33
66090;BME280;53113;45.602;11.904;2022-08-04T03:29:15;101322.79;;;23.21;56.37
66090;BME280;53113;45.602;11.904;2022-08-04T03:59:56;101325.93;;;22.79;57.08
66090;BME280;53113;45.602;11.904;2022-08-04T04:06:18;101319.88;;;22.84;57.09
66090;BME280;53113;45.602;11.904;2022-08-04T04:19:53;101324.80;;;22.84;57.05
66090;BME280;53113;45.602;11.904;2022-08-04T04:30:35;101325.05;;;22.77;57.38
66090;BME280;53113;45.602;11.904;2022-08-04T04:38:42;101330.55;;;22.72;58.05
66090;BME280;53113;45.602;11.904;2022-08-04T04:46:56;101330.01;;;22.89;58.42
66090;BME280;53113;45.602;11.904;2022-08-04T04:55:23;101331.34;;;23.02;58.67
66090;BME280;53113;45.602;11.904;2022-08-04T04:57:52;101335.17;;;23.08;58.75
66090;BME280;53113;45.602;11.904;2022-08-04T05:00:20;101332.31;;;23.11;58.95
66090;BME280;53113;45.602;11.904;2022-08-04T05:06:05;101336.64;;;23.21;59.12
66090;BME280;53113;45.602;11.904;2022-08-04T05:09:17;101338.65;;;23.27;59.17
66090;BME280;53113;45.602;11.904;2022-08-04T05:14:40;101338.72;;;23.40;59.23
66090;BME280;53113;45.602;11.904;2022-08-04T05:17:36;101336.37;;;23.50;59.16
66090;BME280;53113;45.602;11.904;2022-08-04T05:20:34;101334.55;;;23.64;59.11
66090;BME280;53113;45.602;11.904;2022-08-04T05:23:01;101335.51;;;23.77;59.04
66090;BME280;53113;45.602;11.904;2022-08-04T05:25:40;101333.70;;;23.89;59.00
66090;BME280;53113;45.602;11.904;2022-08-04T05:28:17;101333.52;;;23.98;59.04
66090;BME280;53113;45.602;11.904;2022-08-04T05:30:50;101330.11;;;24.06;58.91
66090;BME280;53113;45.602;11.904;2022-08-04T05:33:35;101331.48;;;24.16;58.73
66090;BME280;53113;45.602;11.904;2022-08-04T05:36:07;101330.48;;;24.23;58.65
66090;BME280;53113;45.602;11.904;2022-08-04T05:38:37;101330.19;;;24.31;58.43
66090;BME280;53113;45.602;11.904;2022-08-04T05:41:04;101329.66;;;24.40;58.47
66090;BME280;53113;45.602;11.904;2022-08-04T05:43:34;101336.35;;;24.48;58.44
66090;BME280;53113;45.602;11.904;2022-08-04T05:46:03;101334.89;;;24.54;58.33
66090;BME280;53113;45.602;11.904;2022-08-04T05:48:31;101335.63;;;24.62;58.33
66090;BME280;53113;45.602;11.904;2022-08-04T05:50:57;101338.14;;;24.70;58.22
66090;BME280;53113;45.602;11.904;2022-08-04T05:53:24;101340.84;;;24.78;58.21
66090;BME280;53113;45.602;11.904;2022-08-04T05:55:52;101339.56;;;24.86;58.11
66090;BME280;53113;45.602;11.904;2022-08-04T05:58:18;101342.60;;;24.93;58.01
66090;BME280;53113;45.602;11.904;2022-08-04T06:00:46;101340.02;;;25.00;57.78
66090;BME280;53113;45.602;11.904;2022-08-04T06:03:15;101340.64;;;25.10;57.59
66090;BME280;53113;45.602;11.904;2022-08-04T06:05:44;101336.21;;;25.19;57.52
66090;BME280;53113;45.602;11.904;2022-08-04T06:08:12;101336.42;;;25.27;57.23
66090;BME280;53113;45.602;11.904;2022-08-04T06:10:39;101332.96;;;25.36;57.04
66090;BME280;53113;45.602;11.904;2022-08-04T06:13:11;101337.41;;;25.45;56.93
66090;BME280;53113;45.602;11.904;2022-08-04T06:15:39;101339.27;;;25.54;56.84
66090;BME280;53113;45.602;11.904;2022-08-04T06:18:06;101337.57;;;25.64;56.66
66090;BME280;53113;45.602;11.904;2022-08-04T06:20:35;101339.69;;;25.77;56.38
66090;BME280;53113;45.602;11.904;2022-08-04T06:23:12;101338.58;;;25.87;56.23
66090;BME280;53113;45.602;11.904;2022-08-04T06:25:51;101334.16;;;25.99;56.27
66090;BME280;53113;45.602;11.904;2022-08-04T06:28:19;101332.07;;;26.10;56.12
66090;BME280;53113;45.602;11.904;2022-08-04T06:30:46;101333.73;;;26.24;55.59
66090;BME280;53113;45.602;11.904;2022-08-04T06:33:15;101336.75;;;26.38;55.40
66090;BME280;53113;45.602;11.904;2022-08-04T06:36:00;101341.65;;;26.54;55.05
66090;BME280;53113;45.602;11.904;2022-08-04T06:38:28;101339.13;;;26.69;54.53
66090;BME280;53113;45.602;11.904;2022-08-04T06:40:55;101339.55;;;26.82;54.45
66090;BME280;53113;45.602;11.904;2022-08-04T06:43:28;101345.89;;;26.99;54.22
66090;BME280;53113;45.602;11.904;2022-08-04T06:45:56;101340.90;;;27.13;53.68
66090;BME280;53113;45.602;11.904;2022-08-04T06:48:27;101340.79;;;27.29;53.38
66090;BME280;53113;45.602;11.904;2022-08-04T06:50:54;101344.73;;;27.45;53.02
66090;BME280;53113;45.602;11.904;2022-08-04T06:53:20;101344.11;;;27.61;52.64
66090;BME280;53113;45.602;11.904;2022-08-04T06:55:47;101341.75;;;27.77;52.42
66090;BME280;53113;45.602;11.904;2022-08-04T06:58:14;101342.05;;;27.96;52.06
66090;BME280;53113;45.602;11.904;2022-08-04T07:00:42;101340.45;;;28.12;51.67
66090;BME280;53113;45.602;11.904;2022-08-04T07:03:10;101346.45;;;28.30;51.09
66090;BME280;53113;45.602;11.904;2022-08-04T07:05:36;101342.77;;;28.47;50.89
66090;BME280;53113;45.602;11.904;2022-08-04T07:08:03;101345.48;;;28.64;50.39
66090;BME280;53113;45.602;11.904;2022-08-04T07:10:30;101342.65;;;28.81;50.25
66090;BME280;53113;45.602;11.904;2022-08-04T07:12:57;101342.03;;;29.00;49.86
66090;BME280;53113;45.602;11.904;2022-08-04T07:15:24;101341.52;;;29.18;49.43
66090;BME280;53113;45.602;11.904;2022-08-04T07:17:52;101334.21;;;29.38;49.13
66090;BME280;53113;45.602;11.904;2022-08-04T07:20:19;101334.11;;;29.57;48.64
66090;BME280;53113;45.602;11.904;2022-08-04T07:22:48;101335.00;;;29.78;48.01
66090;BME280;53113;45.602;11.904;2022-08-04T07:25:15;101330.38;;;29.98;47.42
66090;BME280;53113;45.602;11.904;2022-08-04T07:27:42;101330.84;;;30.18;46.74
66090;BME280;53113;45.602;11.904;2022-08-04T07:30:08;101330.93;;;30.39;46.07
66090;BME280;53113;45.602;11.904;2022-08-04T07:32:38;101328.69;;;30.59;45.52
66090;BME280;53113;45.602;11.904;2022-08-04T07:35:06;101330.73;;;30.80;45.17
66090;BME280;53113;45.602;11.904;2022-08-04T07:37:33;101333.01;;;31.01;44.58
66090;BME280;53113;45.602;11.904;2022-08-04T07:39:59;101333.20;;;31.21;43.91
66090;BME280;53113;45.602;11.904;2022-08-04T07:42:26;101332.23;;;31.43;43.13
66090;BME280;53113;45.602;11.904;2022-08-04T07:44:52;101327.50;;;31.62;42.66
66090;BME280;53113;45.602;11.904;2022-08-04T07:47:17;101330.25;;;31.84;42.14
66090;BME280;53113;45.602;11.904;2022-08-04T07:49:43;101328.10;;;32.10;41.69
66090;BME280;53113;45.602;11.904;2022-08-04T07:52:10;101332.94;;;32.31;41.43
66090;BME280;53113;45.602;11.904;2022-08-04T07:54:37;101328.71;;;32.57;40.95
66090;BME280;53113;45.602;11.904;2022-08-04T07:57:03;101329.15;;;32.80;40.55
66090;BME280;53113;45.602;11.904;2022-08-04T07:59:29;101326.81;;;33.05;40.18
66090;BME280;53113;45.602;11.904;2022-08-04T08:01:58;101322.73;;;33.22;39.60
66090;BME280;53113;45.602;11.904;2022-08-04T08:04:27;101326.49;;;33.44;38.78
66090;BME280;53113;45.602;11.904;2022-08-04T08:06:53;101324.11;;;33.62;38.07
66090;BME280;53113;45.602;11.904;2022-08-04T08:09:19;101319.23;;;33.75;37.76
66090;BME280;53113;45.602;11.904;2022-08-04T08:11:51;101321.16;;;33.94;37.62
66090;BME280;53113;45.602;11.904;2022-08-04T08:14:17;101315.69;;;34.12;37.46
66090;BME280;53113;45.602;11.904;2022-08-04T08:16:45;101318.93;;;34.31;37.20
66090;BME280;53113;45.602;11.904;2022-08-04T08:19:12;101315.72;;;34.49;36.68
66090;BME280;53113;45.602;11.904;2022-08-04T08:21:39;101315.23;;;34.65;36.14
66090;BME280;53113;45.602;11.904;2022-08-04T08:24:05;101312.50;;;34.83;35.76
66090;BME280;53113;45.602;11.904;2022-08-04T08:26:31;101311.54;;;34.98;35.31
66090;BME280;53113;45.602;11.904;2022-08-04T08:28:58;101310.46;;;35.14;35.00
66090;BME280;53113;45.602;11.904;2022-08-04T08:31:23;101307.19;;;35.26;34.53
66090;BME280;53113;45.602;11.904;2022-08-04T08:33:50;101311.39;;;35.40;33.55
66090;BME280;53113;45.602;11.904;2022-08-04T08:39:28;101310.59;;;35.67;32.42
66090;BME280;53113;45.602;11.904;2022-08-04T08:53:59;101312.45;;;36.36;30.16
66090;BME280;53113;45.602;11.904;2022-08-04T08:56:54;101311.48;;;36.54;30.32
66090;BME280;53113;45.602;11.904;2022-08-04T09:02:02;101309.25;;;36.86;29.58
66090;BME280;53113;45.602;11.904;2022-08-04T09:10:31;101307.68;;;37.34;28.47
66090;BME280;53113;45.602;11.904;2022-08-04T09:13:02;101306.63;;;37.48;28.39
66090;BME280;53113;45.602;11.904;2022-08-04T09:15:33;101310.60;;;37.60;27.89
66090;BME280;53113;45.602;11.904;2022-08-04T09:20:58;101308.63;;;37.77;27.44
66090;BME280;53113;45.602;11.904;2022-08-04T09:26:12;101308.62;;;38.01;26.86
66090;BME280;53113;45.602;11.904;2022-08-04T09:28:50;101304.41;;;38.11;26.51
66090;BME280;53113;45.602;11.904;2022-08-04T09:31:23;101310.52;;;38.25;26.57
66090;BME280;53113;45.602;11.904;2022-08-04T09:34:09;101304.98;;;38.39;26.64
66090;BME280;53113;45.602;11.904;2022-08-04T09:36:45;101303.44;;;38.56;26.54
66090;BME280;53113;45.602;11.904;2022-08-04T09:39:28;101310.27;;;38.73;26.44
66090;BME280;53113;45.602;11.904;2022-08-04T09:42:08;101307.05;;;38.90;25.68
66090;BME280;53113;45.602;11.904;2022-08-04T09:44:45;101303.73;;;39.03;25.10
66090;BME280;53113;45.602;11.904;2022-08-04T09:47:33;101299.09;;;39.15;24.94
66090;BME280;53113;45.602;11.904;2022-08-04T09:52:48;101290.52;;;39.31;24.66
66090;BME280;53113;45.602;11.904;2022-08-04T09:55:59;101288.80;;;39.38;24.49
66090;BME280;53113;45.602;11.904;2022-08-04T10:01:15;101286.70;;;39.55;24.27
66090;BME280;53113;45.602;11.904;2022-08-04T10:03:47;101278.99;;;39.65;24.08
66090;BME280;53113;45.602;11.904;2022-08-04T10:09:14;101275.61;;;39.82;23.62
66090;BME280;53113;45.602;11.904;2022-08-04T10:20:44;101271.49;;;40.19;22.89
66090;BME280;53113;45.602;11.904;2022-08-04T10:28:42;101256.89;;;40.51;22.19
66090;BME280;53113;45.602;11.904;2022-08-04T10:31:15;101257.13;;;40.63;21.76
66090;BME280;53113;45.602;11.904;2022-08-04T10:33:51;101253.85;;;40.73;21.51
66090;BME280;53113;45.602;11.904;2022-08-04T10:36:22;101245.45;;;40.84;21.41
66090;BME280;53113;45.602;11.904;2022-08-04T10:39:06;101244.56;;;40.98;21.28
66090;BME280;53113;45.602;11.904;2022-08-04T10:41:55;101241.41;;;41.15;21.02
66090;BME280;53113;45.602;11.904;2022-08-04T10:45:01;101245.05;;;41.36;20.87
66090;BME280;53113;45.602;11.904;2022-08-04T10:47:36;101244.23;;;41.58;20.51
66090;BME280;53113;45.602;11.904;2022-08-04T10:50:04;101237.23;;;41.74;20.21
66090;BME280;53113;45.602;11.904;2022-08-04T10:52:37;101234.99;;;41.88;20.00
66090;BME280;53113;45.602;11.904;2022-08-04T10:55:22;101233.52;;;42.02;19.74
66090;BME280;53113;45.602;11.904;2022-08-04T10:58:00;101227.46;;;42.17;19.52
66090;BME280;53113;45.602;11.904;2022-08-04T11:00:28;101229.94;;;42.32;19.42
66090;BME280;53113;45.602;11.904;2022-08-04T11:03:07;101225.91;;;42.43;18.79
66090;BME280;53113;45.602;11.904;2022-08-04T11:05:54;101226.14;;;42.56;18.96
66090;BME280;53113;45.602;11.904;2022-08-04T11:08:27;101225.99;;;42.65;18.49
66090;BME280;53113;45.602;11.904;2022-08-04T11:11:04;101223.41;;;42.70;18.15
66090;BME280;53113;45.602;11.904;2022-08-04T11:13:43;101230.80;;;42.75;18.08
66090;BME280;53113;45.602;11.904;2022-08-04T11:16:19;101224.41;;;42.78;18.15
66090;BME280;53113;45.602;11.904;2022-08-04T11:19:07;101220.33;;;42.81;17.90
66090;BME280;53113;45.602;11.904;2022-08-04T11:21:42;101214.36;;;42.86;18.34
66090;BME280;53113;45.602;11.904;2022-08-04T11:24:24;101218.80;;;42.94;18.17
66090;BME280;53113;45.602;11.904;2022-08-04T11:27:04;101217.08;;;43.01;18.16
66090;BME280;53113;45.602;11.904;2022-08-04T11:30:04;101213.78;;;43.10;17.87
66090;BME280;53113;45.602;11.904;2022-08-04T11:32:51;101211.04;;;43.21;18.20
66090;BME280;53113;45.602;11.904;2022-08-04T11:35:28;101210.83;;;43.30;18.09
66090;BME280;53113;45.602;11.904;2022-08-04T11:38:23;101207.29;;;43.39;17.67
66090;BME280;53113;45.602;11.904;2022-08-04T11:40:56;101201.66;;;43.49;17.65
66090;BME280;53113;45.602;11.904;2022-08-04T11:43:34;101207.36;;;43.55;17.60
66090;BME280;53113;45.602;11.904;2022-08-04T11:46:08;101204.66;;;43.65;17.45
66090;BME280;53113;45.602;11.904;2022-08-04T11:48:44;101201.94;;;43.75;17.28
66090;BME280;53113;45.602;11.904;2022-08-04T11:51:14;101205.96;;;43.86;17.01
66090;BME280;53113;45.602;11.904;2022-08-04T11:53:41;101205.14;;;43.95;16.97
66090;BME280;53113;45.602;11.904;2022-08-04T11:56:11;101198.87;;;44.04;16.78
66090;BME280;53113;45.602;11.904;2022-08-04T11:58:38;101203.08;;;44.15;16.48
66090;BME280;53113;45.602;11.904;2022-08-04T12:04:13;101198.95;;;44.37;16.83
66090;BME280;53113;45.602;11.904;2022-08-04T12:06:47;101194.51;;;44.52;16.55
66090;BME280;53113;45.602;11.904;2022-08-04T12:14:48;101194.95;;;44.77;16.48
66090;BME280;53113;45.602;11.904;2022-08-04T12:17:24;101195.84;;;44.88;16.48
66090;BME280;53113;45.602;11.904;2022-08-04T12:19:56;101195.17;;;45.00;16.47
66090;BME280;53113;45.602;11.904;2022-08-04T12:22:24;101188.34;;;45.09;16.25
66090;BME280;53113;45.602;11.904;2022-08-04T12:25:02;101187.52;;;45.17;16.06
66090;BME280;53113;45.602;11.904;2022-08-04T12:27:33;101187.04;;;45.24;15.94
66090;BME280;53113;45.602;11.904;2022-08-04T12:30:01;101181.15;;;45.31;16.06
66090;BME280;53113;45.602;11.904;2022-08-04T12:32:52;101186.65;;;45.41;15.85
66090;BME280;53113;45.602;11.904;2022-08-04T12:35:24;101186.36;;;45.52;15.80
66090;BME280;53113;45.602;11.904;2022-08-04T12:38:01;101178.00;;;45.64;15.91
66090;BME280;53113;45.602;11.904;2022-08-04T12:40:35;101176.04;;;45.76;15.82
66090;BME280;53113;45.602;11.904;2022-08-04T12:43:14;101175.27;;;45.84;15.42
66090;BME280;53113;45.602;11.904;2022-08-04T12:45:44;101172.25;;;45.91;15.60
66090;BME280;53113;45.602;11.904;2022-08-04T12:48:11;101169.02;;;46.01;15.35
66090;BME280;53113;45.602;11.904;2022-08-04T12:50:39;101170.17;;;46.09;15.40
66090;BME280;53113;45.602;11.904;2022-08-04T12:53:25;101170.73;;;46.22;15.22
66090;BME280;53113;45.602;11.904;2022-08-04T12:55:52;101169.27;;;46.33;15.09
66090;BME280;53113;45.602;11.904;2022-08-04T12:58:24;101166.65;;;46.41;14.71
66090;BME280;53113;45.602;11.904;2022-08-04T13:01:34;101168.04;;;46.44;14.87
66090;BME280;53113;45.602;11.904;2022-08-04T13:06:25;101170.60;;;46.37;15.05
66090;BME280;53113;45.602;11.904;2022-08-04T13:08:52;101164.23;;;46.33;15.10
66090;BME280;53113;45.602;11.904;2022-08-04T13:11:21;101159.84;;;46.32;15.01
66090;BME280;53113;45.602;11.904;2022-08-04T13:13:53;101149.27;;;46.34;14.97
66090;BME280;53113;45.602;11.904;2022-08-04T13:16:31;101151.94;;;46.35;14.87
66090;BME280;53113;45.602;11.904;2022-08-04T13:18:59;101156.14;;;46.30;14.97
66090;BME280;53113;45.602;11.904;2022-08-04T13:21:29;101154.85;;;46.23;14.93
66090;BME280;53113;45.602;11.904;2022-08-04T13:24:01;101148.27;;;46.17;14.98
66090;BME280;53113;45.602;11.904;2022-08-04T13:26:29;101143.30;;;46.18;15.24
66090;BME280;53113;45.602;11.904;2022-08-04T13:28:59;101144.39;;;46.24;15.19
66090;BME280;53113;45.602;11.904;2022-08-04T13:31:27;101140.34;;;46.32;15.23
66090;BME280;53113;45.602;11.904;2022-08-04T13:34:03;101135.66;;;46.38;15.07
66090;BME280;53113;45.602;11.904;2022-08-04T13:36:36;101138.65;;;46.46;14.69
66090;BME280;53113;45.602;11.904;2022-08-04T13:39:08;101133.17;;;46.48;14.64
66090;BME280;53113;45.602;11.904;2022-08-04T13:41:45;101131.46;;;46.52;14.68
66090;BME280;53113;45.602;11.904;2022-08-04T13:44:13;101128.20;;;46.55;14.85
66090;BME280;53113;45.602;11.904;2022-08-04T13:46:52;101128.30;;;46.53;14.61
66090;BME280;53113;45.602;11.904;2022-08-04T13:49:20;101121.79;;;46.45;14.65
66090;BME280;53113;45.602;11.904;2022-08-04T13:51:58;101119.00;;;46.41;14.70
66090;BME280;53113;45.602;11.904;2022-08-04T13:54:36;101111.83;;;46.35;14.76
66090;BME280;53113;45.602;11.904;2022-08-04T13:57:10;101114.27;;;46.32;14.86
66090;BME280;53113;45.602;11.904;2022-08-04T13:59:39;101110.98;;;46.30;14.78
66090;BME280;53113;45.602;11.904;2022-08-04T14:02:31;101109.22;;;46.27;14.78
66090;BME280;53113;45.602;11.904;2022-08-04T14:05:06;101104.95;;;46.27;14.85
66090;BME280;53113;45.602;11.904;2022-08-04T14:07:44;101103.90;;;46.24;14.60
66090;BME280;53113;45.602;11.904;2022-08-04T14:10:12;101099.40;;;46.17;14.68
66090;BME280;53113;45.602;11.904;2022-08-04T14:12:46;101097.19;;;46.08;14.57
66090;BME280;53113;45.602;11.904;2022-08-04T14:15:40;101102.61;;;45.98;14.66
66090;BME280;53113;45.602;11.904;2022-08-04T14:21:11;101097.33;;;45.69;14.80
66090;BME280;53113;45.602;11.904;2022-08-04T14:28:47;101097.32;;;45.47;15.18
66090;BME280;53113;45.602;11.904;2022-08-04T14:31:21;101090.86;;;45.46;14.98
66090;BME280;53113;45.602;11.904;2022-08-04T14:33:49;101089.20;;;45.46;15.00
66090;BME280;53113;45.602;11.904;2022-08-04T14:36:16;101089.55;;;45.47;14.93
66090;BME280;53113;45.602;11.904;2022-08-04T14:41:20;101092.71;;;45.39;15.40
66090;BME280;53113;45.602;11.904;2022-08-04T14:43:51;101090.95;;;45.33;15.24
66090;BME280;53113;45.602;11.904;2022-08-04T14:46:18;101089.65;;;45.24;15.16
66090;BME280;53113;45.602;11.904;2022-08-04T14:49:07;101088.77;;;45.14;15.19
66090;BME280;53113;45.602;11.904;2022-08-04T14:51:35;101085.88;;;45.05;15.29
66090;BME280;53113;45.602;11.904;2022-08-04T14:54:01;101086.75;;;44.99;15.25
66090;BME280;53113;45.602;11.904;2022-08-04T14:56:28;101081.23;;;44.92;15.45
66090;BME280;53113;45.602;11.904;2022-08-04T14:59:00;101079.19;;;44.89;15.54
66090;BME280;53113;45.602;11.904;2022-08-04T15:01:27;101081.33;;;44.89;15.53
66090;BME280;53113;45.602;11.904;2022-08-04T15:03:54;101077.98;;;44.87;15.47
66090;BME280;53113;45.602;11.904;2022-08-04T15:06:23;101080.20;;;44.86;15.38
66090;BME280;53113;45.602;11.904;2022-08-04T15:08:52;101078.45;;;44.85;15.22
66090;BME280;53113;45.602;11.904;2022-08-04T15:11:20;101078.39;;;44.83;15.28
66090;BME280;53113;45.602;11.904;2022-08-04T15:13:46;101075.27;;;44.83;15.19
66090;BME280;53113;45.602;11.904;2022-08-04T15:16:13;101076.23;;;44.85;15.43
66090;BME280;53113;45.602;11.904;2022-08-04T15:18:39;101077.06;;;44.86;15.15
66090;BME280;53113;45.602;11.904;2022-08-04T15:21:06;101072.14;;;44.85;15.14
66090;BME280;53113;45.602;11.904;2022-08-04T15:23:34;101071.84;;;44.83;15.26
66090;BME280;53113;45.602;11.904;2022-08-04T15:26:02;101075.85;;;44.81;15.12
66090;BME280;53113;45.602;11.904;2022-08-04T15:28:31;101072.21;;;44.81;15.05
66090;BME280;53113;45.602;11.904;2022-08-04T15:31:02;101065.17;;;44.79;14.94
66090;BME280;53113;45.602;11.904;2022-08-04T15:33:29;101068.60;;;44.77;14.77
66090;BME280;53113;45.602;11.904;2022-08-04T15:36:25;101066.48;;;44.76;14.93
66090;BME280;53113;45.602;11.904;2022-08-04T15:39:01;101063.51;;;44.69;14.84
66090;BME280;53113;45.602;11.904;2022-08-04T15:49:21;101057.33;;;43.70;15.38
66090;BME280;53113;45.602;11.904;2022-08-04T15:52:12;101060.55;;;43.40;15.61
66090;BME280;53113;45.602;11.904;2022-08-04T15:54:40;101056.60;;;43.06;15.55
66090;BME280;53113;45.602;11.904;2022-08-04T15:57:07;101051.86;;;42.78;15.89
66090;BME280;53113;45.602;11.904;2022-08-04T16:00:25;101053.02;;;42.51;16.02
66090;BME280;53113;45.602;11.904;2022-08-04T16:02:45;101052.05;;;42.16;16.37
66090;BME280;53113;45.602;11.904;2022-08-04T16:07:55;101045.37;;;41.71;16.58
66090;BME280;53113;45.602;11.904;2022-08-04T16:12:57;101043.81;;;41.30;16.77
66090;BME280;53113;45.602;11.904;2022-08-04T16:18:06;101043.60;;;41.07;18.99
66090;BME280;53113;45.602;11.904;2022-08-04T16:20:32;101046.50;;;41.02;19.89
66090;BME280;53113;45.602;11.904;2022-08-04T16:25:47;101044.50;;;41.00;20.62
66090;BME280;53113;45.602;11.904;2022-08-04T16:28:42;101042.13;;;40.99;20.84
66090;BME280;53113;45.602;11.904;2022-08-04T16:31:10;101044.33;;;41.00;20.94
66090;BME280;53113;45.602;11.904;2022-08-04T16:33:37;101039.52;;;40.99;21.22
66090;BME280;53113;45.602;11.904;2022-08-04T16:36:06;101042.39;;;40.96;21.13
66090;BME280;53113;45.602;11.904;2022-08-04T16:38:59;101039.08;;;40.93;21.23
66090;BME280;53113;45.602;11.904;2022-08-04T16:41:39;101040.16;;;40.87;21.32
66090;BME280;53113;45.602;11.904;2022-08-04T16:44:28;101042.83;;;40.80;21.61
66090;BME280;53113;45.602;11.904;2022-08-04T16:46:56;101042.48;;;40.71;21.53
66090;BME280;53113;45.602;11.904;2022-08-04T16:49:24;101046.05;;;40.61;21.74
66090;BME280;53113;45.602;11.904;2022-08-04T16:51:51;101041.97;;;40.52;21.88
66090;BME280;53113;45.602;11.904;2022-08-04T16:54:18;101041.58;;;40.44;22.00
66090;BME280;53113;45.602;11.904;2022-08-04T16:56:45;101045.40;;;40.34;22.17
66090;BME280;53113;45.602;11.904;2022-08-04T16:59:12;101047.06;;;40.25;22.38
66090;BME280;53113;45.602;11.904;2022-08-04T17:01:49;101049.22;;;40.14;22.35
66090;BME280;53113;45.602;11.904;2022-08-04T17:04:16;101051.16;;;40.02;22.56
66090;BME280;53113;45.602;11.904;2022-08-04T17:06:44;101051.13;;;39.92;22.79